createdAt,value
2016-05-21T00:00:07.936Z,0
2016-05-21T00:01:07.922Z,0
2016-05-21T00:02:07.894Z,0
2016-05-21T00:03:07.881Z,0
2016-05-21T00:04:07.852Z,0
2016-05-21T00:05:07.839Z,0
2016-05-21T00:06:07.654Z,0
2016-05-21T00:07:07.642Z,4
2016-05-21T00:08:07.613Z,4
2016-05-21T00:09:07.741Z,0
2016-05-21T00:10:07.727Z,0
2016-05-21T00:11:08.008Z,0
2016-05-21T00:12:07.714Z,0
2016-05-21T00:13:07.717Z,0
2016-05-21T00:14:07.685Z,0
2016-05-21T00:15:07.672Z,0
2016-05-21T00:16:07.676Z,0
2016-05-21T00:17:07.655Z,0
2016-05-21T00:18:07.476Z,0
2016-05-21T00:19:07.610Z,0
2016-05-21T00:20:07.602Z,0
2016-05-21T00:21:07.595Z,0
2016-05-21T00:22:07.569Z,0
2016-05-21T00:23:07.591Z,0
2016-05-21T00:24:07.532Z,0
2016-05-21T00:25:07.523Z,0
2016-05-21T00:26:07.714Z,0
2016-05-21T00:27:07.468Z,0
2016-05-21T00:28:07.457Z,0
2016-05-21T00:29:07.272Z,0
2016-05-21T00:30:07.416Z,0
2016-05-21T00:31:07.231Z,0
2016-05-21T00:32:07.063Z,0
2016-05-21T00:33:07.363Z,0
2016-05-21T00:34:07.162Z,0
2016-05-21T00:35:07.306Z,0
2016-05-21T00:36:07.278Z,0
2016-05-21T00:37:07.248Z,0
2016-05-21T00:38:07.236Z,0
2016-05-21T00:39:07.223Z,0
2016-05-21T00:40:07.194Z,0
2016-05-21T00:41:07.259Z,0
2016-05-21T00:42:07.169Z,0
2016-05-21T00:43:06.983Z,0
2016-05-21T00:44:07.111Z,0
2016-05-21T00:45:06.941Z,0
2016-05-21T00:46:07.070Z,0
2016-05-21T00:47:07.042Z,0
2016-05-21T00:48:06.716Z,0
2016-05-21T00:49:07.000Z,0
2016-05-21T00:50:06.971Z,0
2016-05-21T00:51:06.958Z,0
2016-05-21T00:52:06.930Z,0
2016-05-21T00:53:06.916Z,0
2016-05-21T00:54:06.732Z,0
2016-05-21T00:55:06.890Z,0
2016-05-21T00:56:06.752Z,0
2016-05-21T00:57:06.834Z,0
2016-05-21T00:58:06.820Z,0
2016-05-21T00:59:06.776Z,0
2016-05-21T01:00:06.779Z,0
2016-05-21T01:01:06.751Z,0
2016-05-21T01:02:06.738Z,0
2016-05-21T01:03:06.693Z,0
2016-05-21T01:04:06.665Z,0
2016-05-21T01:05:06.652Z,0
2016-05-21T01:06:06.483Z,0
2016-05-21T01:07:06.611Z,0
2016-05-21T01:08:06.598Z,0
2016-05-21T01:09:06.569Z,0
2016-05-21T01:10:06.540Z,0
2016-05-21T01:11:07.058Z,0
2016-05-21T01:12:06.499Z,0
2016-05-21T01:13:06.470Z,0
2016-05-21T01:14:06.457Z,0
2016-05-21T01:15:06.429Z,0
2016-05-21T01:16:06.416Z,0
2016-05-21T01:17:06.388Z,0
2016-05-21T01:18:06.375Z,0
2016-05-21T01:19:06.346Z,0
2016-05-21T01:20:06.161Z,0
2016-05-21T01:21:06.149Z,0
2016-05-21T01:22:06.135Z,0
2016-05-21T01:23:06.247Z,0
2016-05-21T01:24:06.250Z,0
2016-05-21T01:25:06.221Z,0
2016-05-21T01:26:05.896Z,0
2016-05-21T01:27:05.695Z,0
2016-05-21T01:28:06.151Z,0
2016-05-21T01:29:06.248Z,0
2016-05-21T01:30:06.110Z,0
2016-05-21T01:31:06.082Z,0
2016-05-21T01:32:05.896Z,0
2016-05-21T01:33:06.056Z,0
2016-05-21T01:34:06.027Z,0
2016-05-21T01:35:05.982Z,0
2016-05-21T01:36:05.970Z,0
2016-05-21T01:37:05.957Z,0
2016-05-21T01:38:05.756Z,0
2016-05-21T01:39:05.900Z,0
2016-05-21T01:40:05.887Z,0
2016-05-21T01:41:05.936Z,0
2016-05-21T01:42:05.845Z,0
2016-05-21T01:43:05.801Z,0
2016-05-21T01:44:05.789Z,0
2016-05-21T01:45:05.760Z,0
2016-05-21T01:46:05.747Z,0
2016-05-21T01:47:05.719Z,0
2016-05-21T01:48:05.705Z,0
2016-05-21T01:49:05.536Z,0
2016-05-21T01:50:05.508Z,0
2016-05-21T01:51:05.635Z,0
2016-05-21T01:52:05.450Z,0
2016-05-21T01:53:05.593Z,0
2016-05-21T01:54:05.565Z,0
2016-05-21T01:55:05.536Z,0
2016-05-21T01:56:05.383Z,0
2016-05-21T01:57:05.355Z,0
2016-05-21T01:58:05.482Z,0
2016-05-21T01:59:05.454Z,0
2016-05-21T02:00:05.441Z,0
2016-05-21T02:01:05.396Z,0
2016-05-21T02:02:05.384Z,0
2016-05-21T02:03:05.370Z,0
2016-05-21T02:04:05.357Z,0
2016-05-21T02:05:05.313Z,0
2016-05-21T02:06:05.300Z,0
2016-05-21T02:07:05.115Z,0
2016-05-21T02:08:05.259Z,0
2016-05-21T02:09:05.230Z,0
2016-05-21T02:10:05.201Z,0
2016-05-21T02:11:05.033Z,0
2016-05-21T02:12:05.161Z,0
2016-05-21T02:13:04.835Z,0
2016-05-21T02:14:05.119Z,0
2016-05-21T02:15:05.122Z,0
2016-05-21T02:16:05.093Z,0
2016-05-21T02:17:05.064Z,0
2016-05-21T02:18:05.036Z,0
2016-05-21T02:19:04.991Z,0
2016-05-21T02:20:04.994Z,0
2016-05-21T02:21:04.653Z,0
2016-05-21T02:22:04.938Z,0
2016-05-21T02:23:04.752Z,0
2016-05-21T02:24:04.755Z,0
2016-05-21T02:25:04.883Z,0
2016-05-21T02:26:04.855Z,0
2016-05-21T02:27:04.841Z,0
2016-05-21T02:28:04.796Z,0
2016-05-21T02:29:04.769Z,0
2016-05-21T02:30:04.787Z,0
2016-05-21T02:31:04.618Z,0
2016-05-21T02:32:04.715Z,0
2016-05-21T02:33:04.685Z,0
2016-05-21T02:34:04.673Z,0
2016-05-21T02:35:04.487Z,0
2016-05-21T02:36:04.616Z,0
2016-05-21T02:37:04.586Z,0
2016-05-21T02:38:04.418Z,0
2016-05-21T02:39:04.546Z,0
2016-05-21T02:40:04.376Z,0
2016-05-21T02:41:04.348Z,0
2016-05-21T02:42:04.475Z,0
2016-05-21T02:43:04.306Z,0
2016-05-21T02:44:04.293Z,0
2016-05-21T02:45:04.436Z,4
2016-05-21T02:46:04.392Z,4
2016-05-21T02:47:04.379Z,4
2016-05-21T02:48:04.350Z,0
2016-05-21T02:49:04.322Z,0
2016-05-21T02:50:03.981Z,4
2016-05-21T02:51:04.344Z,4
2016-05-21T02:52:04.268Z,0
2016-05-21T02:53:04.317Z,4
2016-05-21T02:54:04.227Z,4
2016-05-21T02:55:04.276Z,8
2016-05-21T02:56:04.169Z,4
2016-05-21T02:57:03.985Z,8
2016-05-21T02:58:03.815Z,8
2016-05-21T02:59:04.099Z,8
2016-05-21T03:00:04.071Z,8
2016-05-21T03:01:04.058Z,12
2016-05-21T03:02:04.029Z,16
2016-05-21T03:03:04.000Z,16
2016-05-21T03:04:03.832Z,16
2016-05-21T03:05:03.959Z,20
2016-05-21T03:06:03.946Z,20
2016-05-21T03:07:03.761Z,24
2016-05-21T03:08:03.732Z,28
2016-05-21T03:09:03.720Z,36
2016-05-21T03:10:03.863Z,40
2016-05-21T03:11:03.990Z,48
2016-05-21T03:12:03.790Z,56
2016-05-21T03:13:03.762Z,72
2016-05-21T03:14:03.748Z,84
2016-05-21T03:15:03.736Z,104
2016-05-21T03:16:03.708Z,112
2016-05-21T03:17:03.678Z,120
2016-05-21T03:18:03.666Z,120
2016-05-21T03:19:03.637Z,124
2016-05-21T03:20:03.452Z,128
2016-05-21T03:21:03.597Z,128
2016-05-21T03:22:03.411Z,140
2016-05-21T03:23:03.555Z,152
2016-05-21T03:24:03.526Z,164
2016-05-21T03:25:03.482Z,176
2016-05-21T03:26:03.344Z,188
2016-05-21T03:27:03.455Z,200
2016-05-21T03:28:03.428Z,212
2016-05-21T03:29:03.399Z,224
2016-05-21T03:30:03.385Z,240
2016-05-21T03:31:03.357Z,256
2016-05-21T03:32:03.360Z,280
2016-05-21T03:33:03.331Z,304
2016-05-21T03:34:03.287Z,328
2016-05-21T03:35:03.259Z,352
2016-05-21T03:36:03.246Z,380
2016-05-21T03:37:03.232Z,408
2016-05-21T03:38:03.204Z,440
2016-05-21T03:39:03.176Z,468
2016-05-21T03:40:03.147Z,504
2016-05-21T03:41:03.915Z,536
2016-05-21T03:42:02.965Z,572
2016-05-21T03:43:03.092Z,604
2016-05-21T03:44:02.908Z,636
2016-05-21T03:45:02.879Z,664
2016-05-21T03:46:03.022Z,696
2016-05-21T03:47:02.994Z,732
2016-05-21T03:48:02.965Z,772
2016-05-21T03:49:02.937Z,820
2016-05-21T03:50:02.924Z,868
2016-05-21T03:51:02.895Z,928
2016-05-21T03:52:02.726Z,988
2016-05-21T03:53:02.697Z,1048
2016-05-21T03:54:02.669Z,1120
2016-05-21T03:55:02.656Z,1196
2016-05-21T03:56:02.815Z,1288
2016-05-21T03:57:02.786Z,1376
2016-05-21T03:58:02.586Z,1468
2016-05-21T03:59:02.574Z,1560
2016-05-21T04:00:02.701Z,1648
2016-05-21T04:01:02.688Z,1732
2016-05-21T04:02:02.643Z,1824
2016-05-21T04:03:02.646Z,1912
2016-05-21T04:04:02.602Z,2008
2016-05-21T04:05:02.590Z,2108
2016-05-21T04:06:02.560Z,2204
2016-05-21T04:07:02.532Z,2300
2016-05-21T04:08:02.348Z,2392
2016-05-21T04:09:02.475Z,2480
2016-05-21T04:10:02.462Z,2572
2016-05-21T04:11:02.777Z,2676
2016-05-21T04:12:02.420Z,2804
2016-05-21T04:13:02.251Z,2940
2016-05-21T04:14:02.379Z,3068
2016-05-21T04:15:02.351Z,3184
2016-05-21T04:16:02.338Z,3296
2016-05-21T04:17:02.153Z,3408
2016-05-21T04:18:02.140Z,3500
2016-05-21T04:19:02.111Z,3612
2016-05-21T04:20:02.083Z,3756
2016-05-21T04:21:02.211Z,3876
2016-05-21T04:22:02.042Z,4032
2016-05-21T04:23:02.169Z,4208
2016-05-21T04:24:02.000Z,4316
2016-05-21T04:25:02.127Z,4356
2016-05-21T04:26:01.803Z,4328
2016-05-21T04:27:02.741Z,4272
2016-05-21T04:28:02.057Z,4236
2016-05-21T04:29:01.888Z,4208
2016-05-21T04:30:02.032Z,4088
2016-05-21T04:31:02.003Z,3936
2016-05-21T04:32:01.974Z,3820
2016-05-21T04:33:01.977Z,3784
2016-05-21T04:34:01.932Z,3868
2016-05-21T04:35:01.904Z,4028
2016-05-21T04:36:01.735Z,4180
2016-05-21T04:37:01.706Z,4236
2016-05-21T04:38:01.835Z,4180
2016-05-21T04:39:01.509Z,4108
2016-05-21T04:40:01.652Z,4080
2016-05-21T04:41:02.015Z,3988
2016-05-21T04:42:01.595Z,3944
2016-05-21T04:43:01.723Z,3956
2016-05-21T04:44:01.553Z,3976
2016-05-21T04:45:01.681Z,4052
2016-05-21T04:46:01.668Z,4056
2016-05-21T04:47:01.499Z,4076
2016-05-21T04:48:01.486Z,4164
2016-05-21T04:49:01.442Z,4244
2016-05-21T04:50:01.601Z,4392
2016-05-21T04:51:01.557Z,4744
2016-05-21T04:52:01.528Z,5260
2016-05-21T04:53:01.515Z,5768
2016-05-21T04:54:01.486Z,6112
2016-05-21T04:55:01.317Z,6404
2016-05-21T04:56:01.664Z,6728
2016-05-21T04:57:01.276Z,6956
2016-05-21T04:58:01.247Z,6984
2016-05-21T04:59:01.374Z,6904
2016-05-21T05:00:01.363Z,6808
2016-05-21T05:01:01.333Z,6764
2016-05-21T05:02:01.164Z,6736
2016-05-21T05:03:01.291Z,6648
2016-05-21T05:04:01.279Z,6472
2016-05-21T05:05:01.266Z,6280
2016-05-21T05:06:01.238Z,6224
2016-05-21T05:07:01.224Z,6084
2016-05-21T05:08:01.196Z,5964
2016-05-21T05:09:01.167Z,5716
2016-05-21T05:10:01.155Z,5424
2016-05-21T05:11:01.626Z,5172
2016-05-21T05:12:00.973Z,5052
2016-05-21T05:13:01.085Z,5080
2016-05-21T05:14:01.071Z,5320
2016-05-21T05:15:01.059Z,5644
2016-05-21T05:16:01.031Z,6100
2016-05-21T05:17:01.018Z,6664
2016-05-21T05:18:00.973Z,7180
2016-05-21T05:19:00.960Z,7804
2016-05-21T05:20:00.947Z,8520
2016-05-21T05:21:00.919Z,9420
2016-05-21T05:22:00.906Z,10160
2016-05-21T05:23:00.877Z,10520
2016-05-21T05:24:00.708Z,10552
2016-05-21T05:25:00.867Z,10428
2016-05-21T05:26:00.760Z,10208
2016-05-21T05:27:00.825Z,10060
2016-05-21T05:28:00.781Z,9876
2016-05-21T05:29:00.768Z,10352
2016-05-21T05:30:00.740Z,10504
2016-05-21T05:31:00.727Z,9912
2016-05-21T05:32:00.557Z,8872
2016-05-21T05:33:00.685Z,8384
2016-05-21T05:34:00.672Z,8012
2016-05-21T05:35:00.644Z,7712
2016-05-21T05:36:00.490Z,7532
2016-05-21T05:37:00.447Z,7176
2016-05-21T05:38:00.589Z,6912
2016-05-21T05:39:00.560Z,6732
2016-05-21T05:40:00.548Z,6452
2016-05-21T05:41:00.519Z,6228
2016-05-21T05:42:00.365Z,5996
2016-05-21T05:43:00.478Z,5916
2016-05-21T05:44:00.465Z,5984
2016-05-21T05:45:00.452Z,5972
2016-05-21T05:46:00.282Z,5736
2016-05-21T05:47:00.098Z,5548
2016-05-21T05:48:00.381Z,5596
2016-05-21T05:49:00.369Z,5736
2016-05-21T05:50:00.184Z,5856
2016-05-21T05:51:00.328Z,6108
2016-05-21T05:52:00.298Z,6360
2016-05-21T05:53:00.130Z,6392
2016-05-21T05:54:00.273Z,6444
2016-05-21T05:55:00.244Z,6888
2016-05-21T05:56:00.216Z,7884
2016-05-21T05:57:00.109Z,9172
2016-05-21T05:58:00.190Z,10396
2016-05-21T05:59:00.177Z,11184
2016-05-21T06:00:00.149Z,11636
2016-05-21T06:01:00.135Z,12004
2016-05-21T06:02:00.107Z,12144
2016-05-21T06:03:00.094Z,12428
2016-05-21T06:04:00.081Z,12784
2016-05-21T06:05:00.053Z,13252
2016-05-21T06:06:00.040Z,13740
2016-05-21T06:06:59.699Z,14420
2016-05-21T06:07:59.982Z,15432
2016-05-21T06:08:59.985Z,16604
2016-05-21T06:09:59.941Z,17764
2016-05-21T06:11:00.397Z,18400
2016-05-21T06:12:00.259Z,18976
2016-05-21T06:12:59.887Z,18720
2016-05-21T06:13:59.733Z,17244
2016-05-21T06:14:59.860Z,16456
2016-05-21T06:15:59.832Z,18400
2016-05-21T06:16:59.820Z,19200
2016-05-21T06:17:59.806Z,28224
2016-05-21T06:18:59.637Z,19392
2016-05-21T06:19:59.609Z,20704
2016-05-21T06:20:59.767Z,20160
2016-05-21T06:21:59.739Z,25888
2016-05-21T06:22:59.711Z,28128
2016-05-21T06:23:59.714Z,24256
2016-05-21T06:24:59.684Z,19040
2016-05-21T06:25:59.515Z,34208
2016-05-21T06:26:59.690Z,38240
2016-05-21T06:27:59.630Z,36864
2016-05-21T06:28:59.617Z,31392
2016-05-21T06:29:59.605Z,25152
2016-05-21T06:30:59.419Z,22624
2016-05-21T06:31:59.563Z,23360
2016-05-21T06:32:59.377Z,19456
2016-05-21T06:33:59.536Z,25856
2016-05-21T06:34:59.524Z,22304
2016-05-21T06:35:59.496Z,27648
2016-05-21T06:36:59.499Z,31296
2016-05-21T06:37:59.313Z,35264
2016-05-21T06:38:59.300Z,27168
2016-05-21T06:39:59.288Z,25152
2016-05-21T06:40:59.416Z,32384
2016-05-21T06:41:59.104Z,28960
2016-05-21T06:42:59.405Z,37472
2016-05-21T06:43:59.360Z,33504
2016-05-21T06:44:59.207Z,29056
2016-05-21T06:45:59.334Z,21696
2016-05-21T06:46:59.321Z,25696
2016-05-21T06:47:59.324Z,30368
2016-05-21T06:48:59.296Z,29312
2016-05-21T06:49:59.299Z,26752
2016-05-21T06:50:59.129Z,38272
2016-05-21T06:51:59.117Z,41056
2016-05-21T06:52:59.244Z,43360
2016-05-21T06:53:59.231Z,42848
2016-05-21T06:54:59.218Z,41056
2016-05-21T06:55:59.065Z,22688
2016-05-21T06:56:59.317Z,30176
2016-05-21T06:57:59.195Z,32224
2016-05-21T06:58:59.026Z,34592
2016-05-21T06:59:59.169Z,34688
2016-05-21T07:00:58.984Z,36160
2016-05-21T07:01:59.128Z,49216
2016-05-21T07:02:59.114Z,54976
2016-05-21T07:03:58.946Z,52768
2016-05-21T07:04:58.933Z,34816
2016-05-21T07:05:59.092Z,27904
2016-05-21T07:06:59.079Z,25216
2016-05-21T07:07:59.050Z,27072
2016-05-21T07:08:59.053Z,27168
2016-05-21T07:09:59.024Z,25408
2016-05-21T07:10:59.042Z,34656
2016-05-21T07:11:59.046Z,29312
2016-05-21T07:12:59.001Z,25760
2016-05-21T07:13:58.848Z,24768
2016-05-21T07:14:58.991Z,24160
2016-05-21T07:15:58.962Z,23328
2016-05-21T07:16:58.965Z,20288
2016-05-21T07:17:58.937Z,17560
2016-05-21T07:18:58.940Z,16620
2016-05-21T07:19:58.926Z,17184
2016-05-21T07:20:58.742Z,18272
2016-05-21T07:21:58.901Z,20000
2016-05-21T07:22:58.887Z,21600
2016-05-21T07:23:58.859Z,23264
2016-05-21T07:24:58.861Z,34624
2016-05-21T07:25:58.677Z,25376
2016-05-21T07:26:58.867Z,28192
2016-05-21T07:27:58.806Z,27488
2016-05-21T07:28:58.826Z,41536
2016-05-21T07:29:58.812Z,34528
2016-05-21T07:30:58.784Z,32512
2016-05-21T07:31:58.772Z,34208
2016-05-21T07:32:58.774Z,34208
2016-05-21T07:33:58.589Z,33856
2016-05-21T07:34:58.575Z,50304
2016-05-21T07:35:58.703Z,61184
2016-05-21T07:36:58.550Z,57600
2016-05-21T07:37:58.693Z,46432
2016-05-21T07:38:58.680Z,32960
2016-05-21T07:39:58.652Z,48288
2016-05-21T07:40:58.671Z,64640
2016-05-21T07:41:58.860Z,67200
2016-05-21T07:42:58.629Z,43488
2016-05-21T07:43:58.475Z,56960
2016-05-21T07:44:58.602Z,38720
2016-05-21T07:45:58.605Z,32672
2016-05-21T07:46:58.437Z,31264
2016-05-21T07:47:58.596Z,25664
2016-05-21T07:48:58.582Z,23680
2016-05-21T07:49:58.570Z,23616
2016-05-21T07:50:58.557Z,22656
2016-05-21T07:51:58.403Z,22432
2016-05-21T07:52:58.389Z,20928
2016-05-21T07:53:58.518Z,20544
2016-05-21T07:54:58.520Z,21024
2016-05-21T07:55:58.507Z,21568
2016-05-21T07:56:58.839Z,20416
2016-05-21T07:57:58.481Z,19968
2016-05-21T07:58:58.469Z,19648
2016-05-21T07:59:58.472Z,19168
2016-05-21T08:00:58.303Z,19168
2016-05-21T08:01:58.430Z,19008
2016-05-21T08:02:58.276Z,18656
2016-05-21T08:03:58.419Z,17932
2016-05-21T08:04:58.406Z,17888
2016-05-21T08:05:58.394Z,17508
2016-05-21T08:06:58.381Z,16380
2016-05-21T08:07:58.368Z,15460
2016-05-21T08:08:58.371Z,15708
2016-05-21T08:09:58.342Z,16328
2016-05-21T08:10:58.329Z,16296
2016-05-21T08:11:58.566Z,16580
2016-05-21T08:12:58.303Z,18752
2016-05-21T08:13:58.134Z,19808
2016-05-21T08:14:58.278Z,19744
2016-05-21T08:15:58.123Z,19872
2016-05-21T08:16:58.096Z,25440
2016-05-21T08:17:58.098Z,24512
2016-05-21T08:18:58.226Z,25760
2016-05-21T08:19:58.057Z,25376
2016-05-21T08:20:58.043Z,26208
2016-05-21T08:21:58.296Z,40960
2016-05-21T08:22:58.034Z,34560
2016-05-21T08:23:58.161Z,40384
2016-05-21T08:24:58.007Z,32736
2016-05-21T08:25:57.979Z,36320
2016-05-21T08:26:58.419Z,47488
2016-05-21T08:27:58.125Z,32896
2016-05-21T08:28:58.112Z,29760
2016-05-21T08:29:58.084Z,25760
2016-05-21T08:30:58.070Z,23392
2016-05-21T08:31:58.073Z,24288
2016-05-21T08:32:58.060Z,24640
2016-05-21T08:33:58.031Z,23104
2016-05-21T08:34:58.034Z,25248
2016-05-21T08:35:58.006Z,24448
2016-05-21T08:36:58.009Z,22752
2016-05-21T08:37:57.995Z,22176
2016-05-21T08:38:57.983Z,22528
2016-05-21T08:39:57.969Z,30368
2016-05-21T08:40:57.941Z,43232
2016-05-21T08:41:58.100Z,56576
2016-05-21T08:42:57.930Z,40864
2016-05-21T08:43:57.761Z,53216
2016-05-21T08:44:57.749Z,47712
2016-05-21T08:45:57.891Z,33696
2016-05-21T08:46:57.879Z,37184
2016-05-21T08:47:57.882Z,25248
2016-05-21T08:48:57.869Z,21376
2016-05-21T08:49:57.856Z,20000
2016-05-21T08:50:57.687Z,16920
2016-05-21T08:51:57.845Z,12912
2016-05-21T08:52:57.832Z,10884
2016-05-21T08:53:57.648Z,10788
2016-05-21T08:54:57.635Z,14848
2016-05-21T08:55:57.778Z,24032
2016-05-21T08:56:57.484Z,26848
2016-05-21T08:57:57.612Z,25120
2016-05-21T08:58:57.740Z,21280
2016-05-21T08:59:57.742Z,18148
2016-05-21T09:00:57.729Z,20736
2016-05-21T09:01:57.716Z,23872
2016-05-21T09:02:57.720Z,19616
2016-05-21T09:03:57.690Z,21472
2016-05-21T09:04:57.677Z,26144
2016-05-21T09:05:57.665Z,27776
2016-05-21T09:06:57.652Z,25216
2016-05-21T09:07:57.639Z,23808
2016-05-21T09:08:57.454Z,25920
2016-05-21T09:09:57.457Z,26016
2016-05-21T09:10:57.616Z,22912
2016-05-21T09:11:58.509Z,17832
2016-05-21T09:12:57.574Z,21280
2016-05-21T09:13:57.546Z,23104
2016-05-21T09:14:57.533Z,24512
2016-05-21T09:15:57.535Z,23552
2016-05-21T09:16:57.366Z,23072
2016-05-21T09:17:57.532Z,22848
2016-05-21T09:18:57.540Z,22592
2016-05-21T09:19:57.547Z,21024
2016-05-21T09:20:57.540Z,22944
2016-05-21T09:21:57.408Z,23680
2016-05-21T09:22:57.558Z,23808
2016-05-21T09:23:57.412Z,22144
2016-05-21T09:24:57.236Z,22880
2016-05-21T09:25:57.386Z,24576
2016-05-21T09:26:57.693Z,23968
2016-05-21T09:27:57.526Z,22464
2016-05-21T09:28:57.516Z,22048
2016-05-21T09:29:57.350Z,20992
2016-05-21T09:30:57.496Z,20192
2016-05-21T09:31:57.486Z,20480
2016-05-21T09:32:57.474Z,20064
2016-05-21T09:33:57.477Z,18588
2016-05-21T09:34:57.451Z,17720
2016-05-21T09:35:57.438Z,17548
2016-05-21T09:36:57.255Z,17700
2016-05-21T09:37:57.414Z,18840
2016-05-21T09:38:57.418Z,18224
2016-05-21T09:39:57.405Z,18308
2016-05-21T09:40:57.376Z,18248
2016-05-21T09:41:57.224Z,17340
2016-05-21T09:42:57.196Z,16496
2016-05-21T09:43:57.354Z,16152
2016-05-21T09:44:57.325Z,16248
2016-05-21T09:45:57.328Z,16496
2016-05-21T09:46:57.315Z,16532
2016-05-21T09:47:57.303Z,16648
2016-05-21T09:48:57.290Z,16736
2016-05-21T09:49:57.103Z,16420
2016-05-21T09:50:57.248Z,16344
2016-05-21T09:51:57.234Z,16748
2016-05-21T09:52:57.237Z,17944
2016-05-21T09:53:57.224Z,18204
2016-05-21T09:54:57.055Z,17544
2016-05-21T09:55:57.027Z,16296
2016-05-21T09:56:57.763Z,17396
2016-05-21T09:57:57.157Z,16744
2016-05-21T09:58:57.144Z,15764
2016-05-21T09:59:57.163Z,15520
2016-05-21T10:00:56.977Z,15376
2016-05-21T10:01:57.121Z,16664
2016-05-21T10:02:57.108Z,16412
2016-05-21T10:03:57.080Z,17024
2016-05-21T10:04:56.926Z,16580
2016-05-21T10:05:57.069Z,17008
2016-05-21T10:06:57.041Z,18160
2016-05-21T10:07:56.731Z,17904
2016-05-21T10:08:57.015Z,17400
2016-05-21T10:09:57.002Z,18340
2016-05-21T10:10:56.848Z,17856
2016-05-21T10:11:56.945Z,17092
2016-05-21T10:12:56.963Z,18432
2016-05-21T10:13:56.950Z,17836
2016-05-21T10:14:56.937Z,18104
2016-05-21T10:15:56.939Z,19072
2016-05-21T10:16:56.912Z,17340
2016-05-21T10:17:56.601Z,18656
2016-05-21T10:18:56.885Z,19648
2016-05-21T10:19:56.591Z,18816
2016-05-21T10:20:56.876Z,19456
2016-05-21T10:21:56.862Z,19488
2016-05-21T10:22:56.834Z,17476
2016-05-21T10:23:56.868Z,15656
2016-05-21T10:24:56.823Z,15364
2016-05-21T10:25:56.810Z,15032
2016-05-21T10:26:56.797Z,14928
2016-05-21T10:27:56.769Z,17120
2016-05-21T10:28:56.772Z,16456
2016-05-21T10:29:56.743Z,16836
2016-05-21T10:30:56.730Z,17212
2016-05-21T10:32:10.874Z,16832
2016-05-21T10:32:56.720Z,15936
2016-05-21T10:33:56.722Z,15512
2016-05-21T10:34:56.694Z,15496
2016-05-21T10:35:56.369Z,15864
2016-05-21T10:36:56.528Z,17200
2016-05-21T10:37:56.640Z,18392
2016-05-21T10:38:56.627Z,18388
2016-05-21T10:39:56.630Z,17240
2016-05-21T10:40:56.601Z,18068
2016-05-21T10:41:56.650Z,19360
2016-05-21T10:42:56.590Z,16920
2016-05-21T10:43:56.406Z,17040
2016-05-21T10:44:56.565Z,18336
2016-05-21T10:45:56.395Z,15936
2016-05-21T10:46:56.523Z,14388
2016-05-21T10:47:56.526Z,16244
2016-05-21T10:48:56.513Z,18220
2016-05-21T10:49:56.515Z,17868
2016-05-21T10:50:56.487Z,16724
2016-05-21T10:51:56.475Z,15356
2016-05-21T10:52:56.462Z,14564
2016-05-21T10:53:56.448Z,13288
2016-05-21T10:54:56.436Z,13384
2016-05-21T10:55:56.423Z,12424
2016-05-21T10:56:56.614Z,15344
2016-05-21T10:57:56.396Z,15140
2016-05-21T10:58:56.228Z,12024
2016-05-21T10:59:56.355Z,9424
2016-05-21T11:00:56.358Z,7452
2016-05-21T11:01:56.188Z,7692
2016-05-21T11:02:56.333Z,9680
2016-05-21T11:03:56.303Z,9164
2016-05-21T11:04:56.149Z,9384
2016-05-21T11:05:56.137Z,11148
2016-05-21T11:06:56.280Z,11280
2016-05-21T11:07:56.268Z,13788
2016-05-21T11:08:56.254Z,15648
2016-05-21T11:09:56.257Z,13776
2016-05-21T11:10:56.072Z,13528
2016-05-21T11:11:56.544Z,13144
2016-05-21T11:12:56.202Z,13332
2016-05-21T11:13:56.174Z,13152
2016-05-21T11:14:56.177Z,12936
2016-05-21T11:15:56.148Z,14748
2016-05-21T11:16:56.151Z,14436
2016-05-21T11:17:56.123Z,15160
2016-05-21T11:18:56.109Z,15040
2016-05-21T11:19:56.096Z,13292
2016-05-21T11:20:56.099Z,13148
2016-05-21T11:21:56.070Z,13708
2016-05-21T11:22:56.073Z,14572
2016-05-21T11:23:56.045Z,15408
2016-05-21T11:24:55.875Z,14336
2016-05-21T11:25:56.034Z,11548
2016-05-21T11:26:56.005Z,9508
2016-05-21T11:27:55.525Z,9000
2016-05-21T11:28:55.980Z,10408
2016-05-21T11:29:55.827Z,11196
2016-05-21T11:30:55.954Z,15360
2016-05-21T11:31:55.785Z,15048
2016-05-21T11:32:55.772Z,13228
2016-05-21T11:33:55.759Z,11508
2016-05-21T11:34:55.746Z,10496
2016-05-21T11:35:55.889Z,11460
2016-05-21T11:36:55.564Z,12300
2016-05-21T11:37:55.864Z,12032
2016-05-21T11:38:55.866Z,11752
2016-05-21T11:39:55.838Z,13632
2016-05-21T11:40:55.809Z,15460
2016-05-21T11:41:55.687Z,14856
2016-05-21T11:42:55.642Z,14240
2016-05-21T11:43:55.771Z,13240
2016-05-21T11:44:55.304Z,11632
2016-05-21T11:45:55.760Z,10184
2016-05-21T11:46:55.748Z,8984
2016-05-21T11:47:55.751Z,8820
2016-05-21T11:48:55.721Z,11548
2016-05-21T11:49:55.693Z,13792
2016-05-21T11:50:55.695Z,13708
2016-05-21T11:51:55.370Z,11164
2016-05-21T11:52:55.670Z,9180
2016-05-21T11:53:55.328Z,8836
2016-05-21T11:54:55.472Z,10196
2016-05-21T11:55:55.631Z,12108
2016-05-21T11:56:56.134Z,13012
2016-05-21T11:57:55.589Z,12508
2016-05-21T11:58:55.576Z,12172
2016-05-21T11:59:55.422Z,11204
2016-05-21T12:00:55.566Z,10308
2016-05-21T12:01:55.537Z,10048
2016-05-21T12:02:55.525Z,11456
2016-05-21T12:03:55.528Z,10324
2016-05-21T12:04:55.499Z,10144
2016-05-21T12:05:55.501Z,12476
2016-05-21T12:06:55.160Z,13408
2016-05-21T12:07:55.460Z,13108
2016-05-21T12:08:55.447Z,11740
2016-05-21T12:09:55.435Z,12168
2016-05-21T12:10:55.421Z,10764
2016-05-21T12:11:55.471Z,9900
2016-05-21T12:12:55.410Z,10172
2016-05-21T12:13:55.382Z,11652
2016-05-21T12:14:55.244Z,13144
2016-05-21T12:15:55.341Z,14796
2016-05-21T12:16:55.187Z,14460
2016-05-21T12:17:55.174Z,14652
2016-05-21T12:18:55.162Z,14924
2016-05-21T12:19:55.320Z,14916
2016-05-21T12:20:55.307Z,14612
2016-05-21T12:21:55.279Z,14204
2016-05-21T12:22:55.265Z,13592
2016-05-21T12:23:55.268Z,13696
2016-05-21T12:24:55.084Z,14696
2016-05-21T12:25:55.227Z,15056
2016-05-21T12:26:55.511Z,15288
2016-05-21T12:27:55.045Z,16388
2016-05-21T12:28:55.031Z,17028
2016-05-21T12:29:55.175Z,18092
2016-05-21T12:30:55.006Z,18752
2016-05-21T12:31:54.994Z,19328
2016-05-21T12:32:55.137Z,18784
2016-05-21T12:33:55.124Z,17176
2016-05-21T12:34:55.127Z,15272
2016-05-21T12:35:55.097Z,13864
2016-05-21T12:36:55.085Z,12868
2016-05-21T12:37:55.071Z,11988
2016-05-21T12:38:54.903Z,11248
2016-05-21T12:39:55.061Z,11084
2016-05-21T12:40:55.048Z,11792
2016-05-21T12:41:55.317Z,12444
2016-05-21T12:42:55.007Z,13468
2016-05-21T12:43:54.838Z,13572
2016-05-21T12:44:54.982Z,14324
2016-05-21T12:45:54.812Z,15036
2016-05-21T12:46:54.815Z,13736
2016-05-21T12:47:54.786Z,15476
2016-05-21T12:48:54.960Z,17704
2016-05-21T12:49:54.917Z,15516
2016-05-21T12:50:54.935Z,13016
2016-05-21T12:51:54.923Z,11892
2016-05-21T12:52:54.893Z,11728
2016-05-21T12:53:54.724Z,10948
2016-05-21T12:54:54.867Z,10688
2016-05-21T12:55:54.870Z,10828
2016-05-21T12:56:54.889Z,10856
2016-05-21T12:57:54.828Z,11920
2016-05-21T12:58:54.816Z,12860
2016-05-21T12:59:54.803Z,11304
2016-05-21T13:00:54.790Z,11012
2016-05-21T13:01:54.620Z,10492
2016-05-21T13:02:54.764Z,10312
2016-05-21T13:03:54.751Z,10220
2016-05-21T13:04:54.738Z,11100
2016-05-21T13:05:54.569Z,9600
2016-05-21T13:06:54.712Z,8640
2016-05-21T13:07:54.699Z,9592
2016-05-21T13:08:54.686Z,8888
2016-05-21T13:09:54.674Z,8148
2016-05-21T13:10:54.505Z,8112
2016-05-21T13:11:55.147Z,7416
2016-05-21T13:12:54.510Z,7664
2016-05-21T13:13:54.621Z,7356
2016-05-21T13:14:54.625Z,7744
2016-05-21T13:15:54.595Z,7712
2016-05-21T13:16:54.582Z,7052
2016-05-21T13:17:54.413Z,6440
2016-05-21T13:18:54.557Z,6176
2016-05-21T13:19:54.544Z,6180
2016-05-21T13:20:54.531Z,6128
2016-05-21T13:21:54.518Z,6660
2016-05-21T13:22:54.521Z,8688
2016-05-21T13:23:54.492Z,9752